sensor_id;sensor_type;location;lat;lon;timestamp;P1;durP1;ratioP1;P2;durP2;ratioP2
16037;SDS011;8123;50.906;6.172;2022-09-27T00:00:32;8.70;;;2.40;;
16037;SDS011;8123;50.906;6.172;2022-09-27T00:02:58;3.90;;;2.47;;
16037;SDS011;8123;50.906;6.172;2022-09-27T00:05:24;10.73;;;3.00;;
16037;SDS011;8123;50.906;6.172;2022-09-27T00:07:49;2.17;;;2.07;;
16037;SDS011;8123;50.906;6.172;2022-09-27T00:10:15;2.53;;;2.33;;
16037;SDS011;8123;50.906;6.172;2022-09-27T00:12:41;7.13;;;2.63;;
16037;SDS011;8123;50.906;6.172;2022-09-27T00:15:07;2.83;;;2.40;;
16037;SDS011;8123;50.906;6.172;2022-09-27T00:17:34;3.53;;;2.10;;
16037;SDS011;8123;50.906;6.172;2022-09-27T00:20:00;8.90;;;2.20;;
16037;SDS011;8123;50.906;6.172;2022-09-27T00:22:27;5.93;;;3.47;;
16037;SDS011;8123;50.906;6.172;2022-09-27T00:24:53;8.90;;;2.63;;
16037;SDS011;8123;50.906;6.172;2022-09-27T00:27:19;2.60;;;2.50;;
16037;SDS011;8123;50.906;6.172;2022-09-27T00:29:44;4.13;;;2.70;;
16037;SDS011;8123;50.906;6.172;2022-09-27T00:32:12;4.27;;;3.87;;
16037;SDS011;8123;50.906;6.172;2022-09-27T00:34:38;7.73;;;3.77;;
16037;SDS011;8123;50.906;6.172;2022-09-27T00:37:04;6.03;;;3.17;;
16037;SDS011;8123;50.906;6.172;2022-09-27T00:39:30;11.13;;;4.07;;
16037;SDS011;8123;50.906;6.172;2022-09-27T00:41:56;4.53;;;4.27;;
16037;SDS011;8123;50.906;6.172;2022-09-27T00:47:01;5.43;;;4.20;;
16037;SDS011;8123;50.906;6.172;2022-09-27T00:49:31;4.53;;;4.13;;
16037;SDS011;8123;50.906;6.172;2022-09-27T00:52:03;9.80;;;4.27;;
16037;SDS011;8123;50.906;6.172;2022-09-27T00:54:33;6.50;;;5.13;;
16037;SDS011;8123;50.906;6.172;2022-09-27T00:57:00;4.93;;;4.43;;
16037;SDS011;8123;50.906;6.172;2022-09-27T00:59:40;11.80;;;4.60;;
16037;SDS011;8123;50.906;6.172;2022-09-27T01:02:10;11.33;;;5.20;;
16037;SDS011;8123;50.906;6.172;2022-09-27T01:04:36;6.57;;;4.43;;
16037;SDS011;8123;50.906;6.172;2022-09-27T01:07:03;7.07;;;3.90;;
16037;SDS011;8123;50.906;6.172;2022-09-27T01:09:29;5.93;;;4.63;;
16037;SDS011;8123;50.906;6.172;2022-09-27T01:26:16;16.07;;;5.47;;
16037;SDS011;8123;50.906;6.172;2022-09-27T01:28:50;7.80;;;4.80;;
16037;SDS011;8123;50.906;6.172;2022-09-27T01:34:33;5.23;;;4.57;;
16037;SDS011;8123;50.906;6.172;2022-09-27T01:39:45;8.37;;;3.50;;
16037;SDS011;8123;50.906;6.172;2022-09-27T01:42:30;2.47;;;2.30;;
16037;SDS011;8123;50.906;6.172;2022-09-27T01:45:13;2.50;;;2.30;;
16037;SDS011;8123;50.906;6.172;2022-09-27T01:48:09;6.03;;;2.30;;
16037;SDS011;8123;50.906;6.172;2022-09-27T01:50:40;2.73;;;1.90;;
16037;SDS011;8123;50.906;6.172;2022-09-27T01:55:41;6.40;;;2.57;;
16037;SDS011;8123;50.906;6.172;2022-09-27T02:00:33;5.40;;;2.40;;
16037;SDS011;8123;50.906;6.172;2022-09-27T02:03:03;3.13;;;2.50;;
16037;SDS011;8123;50.906;6.172;2022-09-27T02:05:42;6.60;;;3.00;;
16037;SDS011;8123;50.906;6.172;2022-09-27T02:08:18;2.80;;;2.60;;
16037;SDS011;8123;50.906;6.172;2022-09-27T02:10:58;2.50;;;2.40;;
16037;SDS011;8123;50.906;6.172;2022-09-27T02:13:33;5.30;;;2.20;;
16037;SDS011;8123;50.906;6.172;2022-09-27T02:16:57;3.10;;;1.80;;
16037;SDS011;8123;50.906;6.172;2022-09-27T02:22:29;6.13;;;1.60;;
16037;SDS011;8123;50.906;6.172;2022-09-27T02:24:58;2.20;;;2.07;;
16037;SDS011;8123;50.906;6.172;2022-09-27T02:30:21;2.33;;;2.20;;
16037;SDS011;8123;50.906;6.172;2022-09-27T02:32:47;5.87;;;2.90;;
16037;SDS011;8123;50.906;6.172;2022-09-27T02:35:21;16.83;;;3.13;;
16037;SDS011;8123;50.906;6.172;2022-09-27T02:37:56;2.60;;;2.00;;
16037;SDS011;8123;50.906;6.172;2022-09-27T02:40:22;2.73;;;2.33;;
16037;SDS011;8123;50.906;6.172;2022-09-27T02:42:49;6.70;;;2.50;;
16037;SDS011;8123;50.906;6.172;2022-09-27T02:45:15;8.20;;;3.50;;
16037;SDS011;8123;50.906;6.172;2022-09-27T02:51:11;5.70;;;2.83;;
16037;SDS011;8123;50.906;6.172;2022-09-27T02:57:01;6.73;;;3.10;;
16037;SDS011;8123;50.906;6.172;2022-09-27T03:05:06;4.03;;;3.00;;
16037;SDS011;8123;50.906;6.172;2022-09-27T03:07:34;6.60;;;3.23;;
16037;SDS011;8123;50.906;6.172;2022-09-27T03:10:02;3.97;;;2.83;;
16037;SDS011;8123;50.906;6.172;2022-09-27T03:12:28;10.87;;;3.57;;
16037;SDS011;8123;50.906;6.172;2022-09-27T03:14:55;3.43;;;3.23;;
16037;SDS011;8123;50.906;6.172;2022-09-27T03:17:23;4.40;;;2.73;;
16037;SDS011;8123;50.906;6.172;2022-09-27T03:19:49;7.53;;;3.40;;
16037;SDS011;8123;50.906;6.172;2022-09-27T03:22:14;6.23;;;3.37;;
16037;SDS011;8123;50.906;6.172;2022-09-27T03:24:41;7.50;;;3.37;;
16037;SDS011;8123;50.906;6.172;2022-09-27T03:27:06;3.10;;;2.80;;
16037;SDS011;8123;50.906;6.172;2022-09-27T03:29:32;4.23;;;3.43;;
16037;SDS011;8123;50.906;6.172;2022-09-27T03:31:58;4.77;;;3.30;;
16037;SDS011;8123;50.906;6.172;2022-09-27T03:34:23;4.00;;;3.40;;
16037;SDS011;8123;50.906;6.172;2022-09-27T03:36:49;4.50;;;2.93;;
16037;SDS011;8123;50.906;6.172;2022-09-27T03:39:15;3.77;;;3.20;;
16037;SDS011;8123;50.906;6.172;2022-09-27T03:41:40;3.83;;;3.50;;
16037;SDS011;8123;50.906;6.172;2022-09-27T03:44:06;11.73;;;3.37;;
16037;SDS011;8123;50.906;6.172;2022-09-27T03:46:32;11.97;;;4.80;;
16037;SDS011;8123;50.906;6.172;2022-09-27T03:48:58;5.67;;;3.20;;
16037;SDS011;8123;50.906;6.172;2022-09-27T03:51:24;3.10;;;3.00;;
16037;SDS011;8123;50.906;6.172;2022-09-27T03:53:49;3.30;;;3.03;;
16037;SDS011;8123;50.906;6.172;2022-09-27T03:56:15;3.43;;;3.20;;
16037;SDS011;8123;50.906;6.172;2022-09-27T03:58:41;3.30;;;3.07;;
16037;SDS011;8123;50.906;6.172;2022-09-27T04:01:06;3.57;;;3.27;;
16037;SDS011;8123;50.906;6.172;2022-09-27T04:03:32;4.30;;;3.17;;
16037;SDS011;8123;50.906;6.172;2022-09-27T04:05:59;3.07;;;2.87;;
16037;SDS011;8123;50.906;6.172;2022-09-27T04:08:24;4.10;;;2.43;;
16037;SDS011;8123;50.906;6.172;2022-09-27T04:10:50;3.87;;;2.40;;
16037;SDS011;8123;50.906;6.172;2022-09-27T04:13:15;4.10;;;2.73;;
16037;SDS011;8123;50.906;6.172;2022-09-27T04:15:41;4.10;;;2.17;;
16037;SDS011;8123;50.906;6.172;2022-09-27T04:18:07;4.30;;;2.40;;
16037;SDS011;8123;50.906;6.172;2022-09-27T04:20:34;2.93;;;2.40;;
16037;SDS011;8123;50.906;6.172;2022-09-27T04:23:00;3.97;;;1.60;;
16037;SDS011;8123;50.906;6.172;2022-09-27T04:25:26;3.80;;;2.10;;
16037;SDS011;8123;50.906;6.172;2022-09-27T04:27:52;3.03;;;2.10;;
16037;SDS011;8123;50.906;6.172;2022-09-27T04:30:19;2.50;;;2.30;;
16037;SDS011;8123;50.906;6.172;2022-09-27T04:32:46;5.93;;;2.13;;
16037;SDS011;8123;50.906;6.172;2022-09-27T04:35:12;10.83;;;2.20;;
16037;SDS011;8123;50.906;6.172;2022-09-27T04:37:57;4.30;;;2.10;;
16037;SDS011;8123;50.906;6.172;2022-09-27T04:40:23;2.67;;;2.47;;
16037;SDS011;8123;50.906;6.172;2022-09-27T04:42:49;5.80;;;2.57;;
16037;SDS011;8123;50.906;6.172;2022-09-27T04:45:16;5.77;;;2.13;;
16037;SDS011;8123;50.906;6.172;2022-09-27T04:47:42;5.43;;;2.50;;
16037;SDS011;8123;50.906;6.172;2022-09-27T04:50:09;8.30;;;2.10;;
16037;SDS011;8123;50.906;6.172;2022-09-27T04:52:35;2.17;;;1.97;;
16037;SDS011;8123;50.906;6.172;2022-09-27T04:55:01;5.40;;;1.70;;
16037;SDS011;8123;50.906;6.172;2022-09-27T04:57:27;4.00;;;2.40;;
16037;SDS011;8123;50.906;6.172;2022-09-27T04:59:52;3.27;;;2.17;;
16037;SDS011;8123;50.906;6.172;2022-09-27T05:02:18;4.20;;;1.70;;
16037;SDS011;8123;50.906;6.172;2022-09-27T05:04:43;2.67;;;2.17;;
16037;SDS011;8123;50.906;6.172;2022-09-27T05:07:09;1.50;;;1.40;;
16037;SDS011;8123;50.906;6.172;2022-09-27T05:09:34;1.27;;;1.27;;
16037;SDS011;8123;50.906;6.172;2022-09-27T05:12:00;4.93;;;2.03;;
16037;SDS011;8123;50.906;6.172;2022-09-27T05:14:26;1.83;;;1.73;;
16037;SDS011;8123;50.906;6.172;2022-09-27T05:16:52;1.97;;;1.87;;
16037;SDS011;8123;50.906;6.172;2022-09-27T05:19:18;2.37;;;2.20;;
16037;SDS011;8123;50.906;6.172;2022-09-27T05:21:44;4.40;;;2.20;;
16037;SDS011;8123;50.906;6.172;2022-09-27T05:24:10;4.40;;;2.80;;
16037;SDS011;8123;50.906;6.172;2022-09-27T05:26:36;6.23;;;3.63;;
16037;SDS011;8123;50.906;6.172;2022-09-27T05:29:02;3.53;;;3.23;;
16037;SDS011;8123;50.906;6.172;2022-09-27T05:31:28;4.60;;;3.50;;
16037;SDS011;8123;50.906;6.172;2022-09-27T05:33:54;3.43;;;2.90;;
16037;SDS011;8123;50.906;6.172;2022-09-27T05:36:19;2.30;;;2.20;;
16037;SDS011;8123;50.906;6.172;2022-09-27T05:38:45;11.53;;;1.90;;
16037;SDS011;8123;50.906;6.172;2022-09-27T05:41:11;1.60;;;1.50;;
16037;SDS011;8123;50.906;6.172;2022-09-27T05:43:37;7.73;;;1.53;;
16037;SDS011;8123;50.906;6.172;2022-09-27T05:46:02;1.67;;;1.57;;
16037;SDS011;8123;50.906;6.172;2022-09-27T05:48:29;1.37;;;1.20;;
16037;SDS011;8123;50.906;6.172;2022-09-27T05:50:55;1.60;;;1.43;;
16037;SDS011;8123;50.906;6.172;2022-09-27T05:53:21;1.37;;;1.10;;
16037;SDS011;8123;50.906;6.172;2022-09-27T05:55:47;1.13;;;1.13;;
16037;SDS011;8123;50.906;6.172;2022-09-27T05:58:13;5.33;;;1.20;;
16037;SDS011;8123;50.906;6.172;2022-09-27T06:00:40;1.90;;;1.40;;
16037;SDS011;8123;50.906;6.172;2022-09-27T06:03:07;1.00;;;1.00;;
16037;SDS011;8123;50.906;6.172;2022-09-27T06:05:36;4.10;;;1.27;;
16037;SDS011;8123;50.906;6.172;2022-09-27T06:08:04;1.37;;;1.27;;
16037;SDS011;8123;50.906;6.172;2022-09-27T06:10:32;3.53;;;1.10;;
16037;SDS011;8123;50.906;6.172;2022-09-27T06:13:00;1.17;;;1.17;;
16037;SDS011;8123;50.906;6.172;2022-09-27T06:15:31;6.23;;;1.77;;
16037;SDS011;8123;50.906;6.172;2022-09-27T06:18:02;2.00;;;1.47;;
16037;SDS011;8123;50.906;6.172;2022-09-27T06:20:30;4.93;;;1.80;;
16037;SDS011;8123;50.906;6.172;2022-09-27T06:23:06;2.10;;;1.47;;
16037;SDS011;8123;50.906;6.172;2022-09-27T06:25:34;2.30;;;1.63;;
16037;SDS011;8123;50.906;6.172;2022-09-27T06:28:01;4.47;;;2.17;;
16037;SDS011;8123;50.906;6.172;2022-09-27T06:30:27;4.27;;;2.37;;
16037;SDS011;8123;50.906;6.172;2022-09-27T06:32:57;2.93;;;1.60;;
16037;SDS011;8123;50.906;6.172;2022-09-27T06:35:27;2.40;;;1.63;;
16037;SDS011;8123;50.906;6.172;2022-09-27T06:37:54;14.10;;;1.60;;
16037;SDS011;8123;50.906;6.172;2022-09-27T06:40:20;4.70;;;1.63;;
16037;SDS011;8123;50.906;6.172;2022-09-27T06:42:47;1.80;;;1.70;;
16037;SDS011;8123;50.906;6.172;2022-09-27T06:45:14;4.57;;;2.13;;
16037;SDS011;8123;50.906;6.172;2022-09-27T06:47:39;1.90;;;1.80;;
16037;SDS011;8123;50.906;6.172;2022-09-27T06:52:34;3.17;;;1.90;;
16037;SDS011;8123;50.906;6.172;2022-09-27T06:55:01;2.20;;;2.00;;
16037;SDS011;8123;50.906;6.172;2022-09-27T06:57:29;2.50;;;2.40;;
16037;SDS011;8123;50.906;6.172;2022-09-27T07:00:14;6.80;;;2.60;;
16037;SDS011;8123;50.906;6.172;2022-09-27T07:02:50;2.83;;;2.50;;
16037;SDS011;8123;50.906;6.172;2022-09-27T07:05:17;5.43;;;2.30;;
16037;SDS011;8123;50.906;6.172;2022-09-27T07:07:43;2.13;;;2.03;;
16037;SDS011;8123;50.906;6.172;2022-09-27T07:10:09;5.40;;;1.90;;
16037;SDS011;8123;50.906;6.172;2022-09-27T07:12:35;4.40;;;2.40;;
16037;SDS011;8123;50.906;6.172;2022-09-27T07:15:02;2.00;;;1.80;;
16037;SDS011;8123;50.906;6.172;2022-09-27T07:17:28;5.40;;;1.60;;
16037;SDS011;8123;50.906;6.172;2022-09-27T07:19:54;1.53;;;1.43;;
16037;SDS011;8123;50.906;6.172;2022-09-27T07:22:20;5.47;;;1.80;;
16037;SDS011;8123;50.906;6.172;2022-09-27T07:24:46;1.83;;;1.10;;
16037;SDS011;8123;50.906;6.172;2022-09-27T07:27:12;1.70;;;1.60;;
16037;SDS011;8123;50.906;6.172;2022-09-27T07:29:39;1.73;;;1.63;;
16037;SDS011;8123;50.906;6.172;2022-09-27T07:32:05;7.23;;;1.70;;
16037;SDS011;8123;50.906;6.172;2022-09-27T07:34:32;2.33;;;2.20;;
16037;SDS011;8123;50.906;6.172;2022-09-27T07:36:58;5.80;;;3.10;;
16037;SDS011;8123;50.906;6.172;2022-09-27T07:39:24;2.00;;;1.90;;
16037;SDS011;8123;50.906;6.172;2022-09-27T07:41:50;7.70;;;2.20;;
16037;SDS011;8123;50.906;6.172;2022-09-27T07:44:16;2.60;;;2.40;;
16037;SDS011;8123;50.906;6.172;2022-09-27T07:46:42;2.80;;;2.60;;
16037;SDS011;8123;50.906;6.172;2022-09-27T07:49:08;3.00;;;2.60;;
16037;SDS011;8123;50.906;6.172;2022-09-27T07:51:33;3.83;;;3.30;;
16037;SDS011;8123;50.906;6.172;2022-09-27T07:53:59;5.50;;;3.17;;
16037;SDS011;8123;50.906;6.172;2022-09-27T07:56:27;4.50;;;2.23;;
16037;SDS011;8123;50.906;6.172;2022-09-27T07:58:53;3.63;;;2.93;;
16037;SDS011;8123;50.906;6.172;2022-09-27T08:01:19;2.80;;;2.60;;
16037;SDS011;8123;50.906;6.172;2022-09-27T08:03:45;6.57;;;3.30;;
16037;SDS011;8123;50.906;6.172;2022-09-27T08:06:10;3.00;;;2.77;;
16037;SDS011;8123;50.906;6.172;2022-09-27T08:08:36;5.43;;;3.20;;
16037;SDS011;8123;50.906;6.172;2022-09-27T08:11:15;5.43;;;3.47;;
16037;SDS011;8123;50.906;6.172;2022-09-27T08:13:42;3.77;;;3.47;;
16037;SDS011;8123;50.906;6.172;2022-09-27T08:16:09;4.07;;;2.90;;
16037;SDS011;8123;50.906;6.172;2022-09-27T08:18:36;2.60;;;2.40;;
16037;SDS011;8123;50.906;6.172;2022-09-27T08:21:01;4.33;;;2.90;;
16037;SDS011;8123;50.906;6.172;2022-09-27T08:23:28;6.57;;;2.90;;
16037;SDS011;8123;50.906;6.172;2022-09-27T08:25:55;2.93;;;2.73;;
16037;SDS011;8123;50.906;6.172;2022-09-27T08:28:23;2.67;;;2.37;;
16037;SDS011;8123;50.906;6.172;2022-09-27T08:30:50;3.20;;;2.70;;
16037;SDS011;8123;50.906;6.172;2022-09-27T08:33:16;3.43;;;2.57;;
16037;SDS011;8123;50.906;6.172;2022-09-27T08:35:42;6.90;;;3.03;;
16037;SDS011;8123;50.906;6.172;2022-09-27T08:38:07;6.60;;;3.33;;
16037;SDS011;8123;50.906;6.172;2022-09-27T08:40:51;3.40;;;3.20;;
16037;SDS011;8123;50.906;6.172;2022-09-27T08:46:03;6.10;;;3.30;;
16037;SDS011;8123;50.906;6.172;2022-09-27T08:48:49;3.40;;;3.20;;
16037;SDS011;8123;50.906;6.172;2022-09-27T08:51:20;11.43;;;3.80;;
16037;SDS011;8123;50.906;6.172;2022-09-27T08:53:52;3.70;;;3.40;;
16037;SDS011;8123;50.906;6.172;2022-09-27T08:56:31;3.60;;;3.30;;
16037;SDS011;8123;50.906;6.172;2022-09-27T09:01:29;4.20;;;3.90;;
16037;SDS011;8123;50.906;6.172;2022-09-27T09:03:56;12.23;;;4.10;;
16037;SDS011;8123;50.906;6.172;2022-09-27T09:31:57;5.77;;;3.90;;
16037;SDS011;8123;50.906;6.172;2022-09-27T09:34:36;7.20;;;3.77;;
16037;SDS011;8123;50.906;6.172;2022-09-27T09:39:41;9.20;;;3.97;;
16037;SDS011;8123;50.906;6.172;2022-09-27T09:42:28;7.80;;;3.93;;
16037;SDS011;8123;50.906;6.172;2022-09-27T09:45:17;4.53;;;3.90;;
16037;SDS011;8123;50.906;6.172;2022-09-27T09:50:23;10.77;;;4.30;;
16037;SDS011;8123;50.906;6.172;2022-09-27T09:55:57;4.63;;;4.33;;
16037;SDS011;8123;50.906;6.172;2022-09-27T10:03:43;7.57;;;5.40;;
16037;SDS011;8123;50.906;6.172;2022-09-27T10:06:09;7.00;;;5.43;;
16037;SDS011;8123;50.906;6.172;2022-09-27T10:08:37;10.07;;;5.60;;
16037;SDS011;8123;50.906;6.172;2022-09-27T10:11:03;9.77;;;4.87;;
16037;SDS011;8123;50.906;6.172;2022-09-27T10:13:29;15.17;;;5.60;;
16037;SDS011;8123;50.906;6.172;2022-09-27T10:18:36;8.37;;;5.40;;
16037;SDS011;8123;50.906;6.172;2022-09-27T10:21:05;5.47;;;4.87;;
16037;SDS011;8123;50.906;6.172;2022-09-27T10:23:35;6.10;;;5.00;;
16037;SDS011;8123;50.906;6.172;2022-09-27T10:26:35;4.53;;;4.23;;
16037;SDS011;8123;50.906;6.172;2022-09-27T10:29:13;4.77;;;3.93;;
16037;SDS011;8123;50.906;6.172;2022-09-27T10:31:52;4.43;;;4.13;;
16037;SDS011;8123;50.906;6.172;2022-09-27T10:34:34;4.17;;;3.87;;
16037;SDS011;8123;50.906;6.172;2022-09-27T10:37:03;5.60;;;4.37;;
16037;SDS011;8123;50.906;6.172;2022-09-27T10:39:48;7.33;;;4.17;;
16037;SDS011;8123;50.906;6.172;2022-09-27T10:44:44;5.80;;;4.30;;
16037;SDS011;8123;50.906;6.172;2022-09-27T10:47:10;4.53;;;4.13;;
16037;SDS011;8123;50.906;6.172;2022-09-27T10:49:43;4.90;;;4.50;;
16037;SDS011;8123;50.906;6.172;2022-09-27T10:52:13;5.37;;;4.50;;
16037;SDS011;8123;50.906;6.172;2022-09-27T10:54:43;5.37;;;4.10;;
16037;SDS011;8123;50.906;6.172;2022-09-27T10:57:30;4.30;;;3.90;;
16037;SDS011;8123;50.906;6.172;2022-09-27T11:00:06;4.27;;;3.80;;
16037;SDS011;8123;50.906;6.172;2022-09-27T11:02:45;5.40;;;2.80;;
16037;SDS011;8123;50.906;6.172;2022-09-27T11:07:55;4.10;;;3.80;;
16037;SDS011;8123;50.906;6.172;2022-09-27T11:10:26;7.50;;;3.97;;
16037;SDS011;8123;50.906;6.172;2022-09-27T11:13:05;4.63;;;4.23;;
16037;SDS011;8123;50.906;6.172;2022-09-27T11:18:23;5.60;;;4.20;;
16037;SDS011;8123;50.906;6.172;2022-09-27T11:45:54;2.70;;;2.00;;
16037;SDS011;8123;50.906;6.172;2022-09-27T11:48:26;2.10;;;1.93;;
16037;SDS011;8123;50.906;6.172;2022-09-27T11:56:33;5.80;;;1.70;;
16037;SDS011;8123;50.906;6.172;2022-09-27T12:07:25;2.73;;;2.10;;
16037;SDS011;8123;50.906;6.172;2022-09-27T12:10:13;2.27;;;1.67;;
16037;SDS011;8123;50.906;6.172;2022-09-27T12:12:42;2.33;;;2.10;;
16037;SDS011;8123;50.906;6.172;2022-09-27T12:17:45;2.57;;;2.27;;
16037;SDS011;8123;50.906;6.172;2022-09-27T12:20:21;2.20;;;2.10;;
16037;SDS011;8123;50.906;6.172;2022-09-27T12:23:03;3.90;;;1.60;;
16037;SDS011;8123;50.906;6.172;2022-09-27T12:25:35;1.03;;;1.03;;
16037;SDS011;8123;50.906;6.172;2022-09-27T12:28:17;0.93;;;0.93;;
16037;SDS011;8123;50.906;6.172;2022-09-27T12:31:08;0.80;;;0.80;;
16037;SDS011;8123;50.906;6.172;2022-09-27T12:33:53;5.90;;;1.20;;
16037;SDS011;8123;50.906;6.172;2022-09-27T12:36:33;1.77;;;1.27;;
16037;SDS011;8123;50.906;6.172;2022-09-27T12:39:14;2.17;;;1.57;;
16037;SDS011;8123;50.906;6.172;2022-09-27T12:41:57;1.00;;;0.90;;
16037;SDS011;8123;50.906;6.172;2022-09-27T12:44:30;4.40;;;1.30;;
16037;SDS011;8123;50.906;6.172;2022-09-27T12:52:22;1.10;;;1.00;;
16037;SDS011;8123;50.906;6.172;2022-09-27T12:58:15;3.60;;;1.40;;
16037;SDS011;8123;50.906;6.172;2022-09-27T13:04:01;1.67;;;1.23;;
16037;SDS011;8123;50.906;6.172;2022-09-27T13:15:20;8.43;;;1.27;;
16037;SDS011;8123;50.906;6.172;2022-09-27T13:23:00;4.47;;;1.47;;
16037;SDS011;8123;50.906;6.172;2022-09-27T13:25:46;6.17;;;1.37;;
16037;SDS011;8123;50.906;6.172;2022-09-27T13:30:53;3.70;;;1.50;;
16037;SDS011;8123;50.906;6.172;2022-09-27T13:33:21;4.63;;;1.50;;
16037;SDS011;8123;50.906;6.172;2022-09-27T13:44:15;2.40;;;1.63;;
16037;SDS011;8123;50.906;6.172;2022-09-27T13:46:51;4.30;;;1.83;;
16037;SDS011;8123;50.906;6.172;2022-09-27T13:49:22;2.37;;;1.30;;
16037;SDS011;8123;50.906;6.172;2022-09-27T13:52:21;3.30;;;1.83;;
16037;SDS011;8123;50.906;6.172;2022-09-27T13:54:58;4.13;;;2.03;;
16037;SDS011;8123;50.906;6.172;2022-09-27T14:00:24;6.17;;;1.47;;
16037;SDS011;8123;50.906;6.172;2022-09-27T14:05:33;3.60;;;1.53;;
16037;SDS011;8123;50.906;6.172;2022-09-27T14:08:05;2.23;;;1.70;;
16037;SDS011;8123;50.906;6.172;2022-09-27T14:10:38;2.90;;;1.83;;
16037;SDS011;8123;50.906;6.172;2022-09-27T14:13:07;1.13;;;1.00;;
16037;SDS011;8123;50.906;6.172;2022-09-27T14:15:35;1.50;;;1.13;;
16037;SDS011;8123;50.906;6.172;2022-09-27T14:18:02;2.80;;;1.27;;
16037;SDS011;8123;50.906;6.172;2022-09-27T14:20:28;1.40;;;1.30;;
16037;SDS011;8123;50.906;6.172;2022-09-27T14:22:56;2.00;;;1.93;;
16037;SDS011;8123;50.906;6.172;2022-09-27T14:25:22;1.27;;;1.17;;
16037;SDS011;8123;50.906;6.172;2022-09-27T14:27:49;1.77;;;1.37;;
16037;SDS011;8123;50.906;6.172;2022-09-27T14:30:23;1.27;;;1.27;;
16037;SDS011;8123;50.906;6.172;2022-09-27T14:32:52;1.10;;;1.10;;
16037;SDS011;8123;50.906;6.172;2022-09-27T14:35:20;1.40;;;1.40;;
16037;SDS011;8123;50.906;6.172;2022-09-27T14:38:11;1.53;;;1.43;;
16037;SDS011;8123;50.906;6.172;2022-09-27T14:40:40;2.50;;;1.50;;
16037;SDS011;8123;50.906;6.172;2022-09-27T14:43:17;1.60;;;1.60;;
16037;SDS011;8123;50.906;6.172;2022-09-27T14:45:45;13.90;;;1.80;;
16037;SDS011;8123;50.906;6.172;2022-09-27T14:53:54;1.80;;;1.33;;
16037;SDS011;8123;50.906;6.172;2022-09-27T14:56:24;5.20;;;2.77;;
16037;SDS011;8123;50.906;6.172;2022-09-27T14:58:53;1.50;;;1.40;;
16037;SDS011;8123;50.906;6.172;2022-09-27T15:01:26;5.13;;;2.07;;
16037;SDS011;8123;50.906;6.172;2022-09-27T15:03:53;2.60;;;1.80;;
16037;SDS011;8123;50.906;6.172;2022-09-27T15:06:21;5.90;;;2.00;;
16037;SDS011;8123;50.906;6.172;2022-09-27T15:08:48;1.83;;;1.73;;
16037;SDS011;8123;50.906;6.172;2022-09-27T15:11:15;3.70;;;2.00;;
16037;SDS011;8123;50.906;6.172;2022-09-27T15:13:43;2.07;;;1.57;;
16037;SDS011;8123;50.906;6.172;2022-09-27T15:16:14;4.10;;;1.67;;
16037;SDS011;8123;50.906;6.172;2022-09-27T15:18:44;4.30;;;1.63;;
16037;SDS011;8123;50.906;6.172;2022-09-27T15:21:27;5.67;;;2.60;;
16037;SDS011;8123;50.906;6.172;2022-09-27T15:23:55;2.20;;;2.00;;
16037;SDS011;8123;50.906;6.172;2022-09-27T15:26:24;3.90;;;1.80;;
16037;SDS011;8123;50.906;6.172;2022-09-27T15:28:59;4.77;;;2.20;;
16037;SDS011;8123;50.906;6.172;2022-09-27T15:31:32;4.33;;;2.17;;
16037;SDS011;8123;50.906;6.172;2022-09-27T15:34:01;3.33;;;3.10;;
16037;SDS011;8123;50.906;6.172;2022-09-27T15:39:14;1.93;;;1.83;;
16037;SDS011;8123;50.906;6.172;2022-09-27T15:44:42;5.17;;;3.10;;
16037;SDS011;8123;50.906;6.172;2022-09-27T15:47:56;4.53;;;2.57;;
16037;SDS011;8123;50.906;6.172;2022-09-27T15:55:18;15.77;;;3.70;;
16037;SDS011;8123;50.906;6.172;2022-09-27T15:57:47;2.97;;;2.47;;
16037;SDS011;8123;50.906;6.172;2022-09-27T16:00:16;6.03;;;2.77;;
16037;SDS011;8123;50.906;6.172;2022-09-27T16:02:43;3.90;;;2.57;;
16037;SDS011;8123;50.906;6.172;2022-09-27T16:05:09;10.10;;;3.57;;
16037;SDS011;8123;50.906;6.172;2022-09-27T16:07:35;5.53;;;2.60;;
16037;SDS011;8123;50.906;6.172;2022-09-27T16:10:01;2.83;;;2.30;;
16037;SDS011;8123;50.906;6.172;2022-09-27T16:12:33;10.90;;;4.80;;
16037;SDS011;8123;50.906;6.172;2022-09-27T16:14:59;7.03;;;4.03;;
16037;SDS011;8123;50.906;6.172;2022-09-27T16:17:25;16.17;;;5.90;;
16037;SDS011;8123;50.906;6.172;2022-09-27T16:19:50;9.43;;;4.97;;
16037;SDS011;8123;50.906;6.172;2022-09-27T16:22:16;7.87;;;4.40;;
16037;SDS011;8123;50.906;6.172;2022-09-27T16:24:42;6.20;;;4.23;;
16037;SDS011;8123;50.906;6.172;2022-09-27T16:27:08;8.10;;;5.43;;
16037;SDS011;8123;50.906;6.172;2022-09-27T16:29:33;13.07;;;4.20;;
16037;SDS011;8123;50.906;6.172;2022-09-27T16:31:59;15.27;;;3.93;;
16037;SDS011;8123;50.906;6.172;2022-09-27T16:34:25;3.20;;;2.80;;
16037;SDS011;8123;50.906;6.172;2022-09-27T16:36:52;8.50;;;3.00;;
16037;SDS011;8123;50.906;6.172;2022-09-27T16:39:18;25.73;;;3.60;;
16037;SDS011;8123;50.906;6.172;2022-09-27T16:41:43;13.93;;;5.60;;
16037;SDS011;8123;50.906;6.172;2022-09-27T16:44:10;5.90;;;3.60;;
16037;SDS011;8123;50.906;6.172;2022-09-27T16:46:40;4.43;;;3.27;;
16037;SDS011;8123;50.906;6.172;2022-09-27T16:49:07;6.47;;;2.83;;
16037;SDS011;8123;50.906;6.172;2022-09-27T16:51:56;5.97;;;2.90;;
16037;SDS011;8123;50.906;6.172;2022-09-27T16:54:25;3.60;;;3.30;;
16037;SDS011;8123;50.906;6.172;2022-09-27T16:56:55;21.23;;;3.07;;
16037;SDS011;8123;50.906;6.172;2022-09-27T16:59:22;11.93;;;3.10;;
16037;SDS011;8123;50.906;6.172;2022-09-27T17:01:49;12.63;;;4.13;;
16037;SDS011;8123;50.906;6.172;2022-09-27T17:04:15;6.93;;;3.37;;
16037;SDS011;8123;50.906;6.172;2022-09-27T17:06:40;10.03;;;3.17;;
16037;SDS011;8123;50.906;6.172;2022-09-27T17:09:07;5.83;;;2.73;;
16037;SDS011;8123;50.906;6.172;2022-09-27T17:11:33;8.53;;;3.13;;
16037;SDS011;8123;50.906;6.172;2022-09-27T17:13:59;2.37;;;2.23;;
16037;SDS011;8123;50.906;6.172;2022-09-27T17:16:25;6.20;;;2.60;;
16037;SDS011;8123;50.906;6.172;2022-09-27T17:18:52;10.03;;;3.23;;
16037;SDS011;8123;50.906;6.172;2022-09-27T17:21:18;4.13;;;3.10;;
16037;SDS011;8123;50.906;6.172;2022-09-27T17:23:44;8.93;;;3.53;;
16037;SDS011;8123;50.906;6.172;2022-09-27T17:26:18;4.53;;;2.70;;
16037;SDS011;8123;50.906;6.172;2022-09-27T17:28:46;3.17;;;2.87;;
16037;SDS011;8123;50.906;6.172;2022-09-27T17:31:13;5.73;;;3.90;;
16037;SDS011;8123;50.906;6.172;2022-09-27T17:33:42;16.73;;;3.20;;
16037;SDS011;8123;50.906;6.172;2022-09-27T17:36:12;6.10;;;2.63;;
16037;SDS011;8123;50.906;6.172;2022-09-27T17:38:42;11.13;;;3.97;;
16037;SDS011;8123;50.906;6.172;2022-09-27T17:41:10;15.43;;;7.07;;
16037;SDS011;8123;50.906;6.172;2022-09-27T17:43:37;14.00;;;4.60;;
16037;SDS011;8123;50.906;6.172;2022-09-27T17:46:11;12.60;;;5.17;;
16037;SDS011;8123;50.906;6.172;2022-09-27T17:48:37;3.97;;;3.23;;
16037;SDS011;8123;50.906;6.172;2022-09-27T17:51:21;8.77;;;3.80;;
16037;SDS011;8123;50.906;6.172;2022-09-27T17:53:47;9.13;;;3.33;;
16037;SDS011;8123;50.906;6.172;2022-09-27T17:56:14;6.53;;;2.60;;
16037;SDS011;8123;50.906;6.172;2022-09-27T17:58:47;7.53;;;3.53;;
16037;SDS011;8123;50.906;6.172;2022-09-27T18:01:14;12.13;;;4.10;;
16037;SDS011;8123;50.906;6.172;2022-09-27T18:03:41;9.33;;;5.07;;
16037;SDS011;8123;50.906;6.172;2022-09-27T18:06:07;17.70;;;3.57;;
16037;SDS011;8123;50.906;6.172;2022-09-27T18:08:34;8.43;;;4.50;;
16037;SDS011;8123;50.906;6.172;2022-09-27T18:11:04;6.20;;;4.03;;
16037;SDS011;8123;50.906;6.172;2022-09-27T18:13:31;10.17;;;4.73;;
16037;SDS011;8123;50.906;6.172;2022-09-27T18:16:02;12.20;;;4.47;;
16037;SDS011;8123;50.906;6.172;2022-09-27T18:18:28;8.03;;;3.87;;
16037;SDS011;8123;50.906;6.172;2022-09-27T18:20:59;9.17;;;4.10;;
16037;SDS011;8123;50.906;6.172;2022-09-27T18:23:27;8.23;;;5.20;;
16037;SDS011;8123;50.906;6.172;2022-09-27T18:25:53;16.07;;;6.10;;
16037;SDS011;8123;50.906;6.172;2022-09-27T18:28:23;18.80;;;6.83;;
16037;SDS011;8123;50.906;6.172;2022-09-27T18:30:51;23.77;;;5.67;;
16037;SDS011;8123;50.906;6.172;2022-09-27T18:33:16;8.43;;;5.27;;
16037;SDS011;8123;50.906;6.172;2022-09-27T18:35:42;9.03;;;6.23;;
16037;SDS011;8123;50.906;6.172;2022-09-27T18:38:07;11.00;;;6.97;;